Time;durP1;ratioP1;P1;durP2;ratioP2;P2;SDS_P1;SDS_P2;PMS_P1;PMS_P2;Temp;Humidity;BMP_temperature;BMP_pressure;BME280_temperature;BME280_humidity;BME280_pressure;Samples;Min_cycle;Max_cycle;Signal;HPM_P1;HPM_P2
2021/11/02 00:00:11;;;;;;;;;;;10.40;99.90;10.80;98416.00;;;;338125;28;82511;-92
2021/11/02 00:00:23;;;;;;;;;;;10.40;99.90;10.80;98415.00;;;;339254;28;82941;-91
2021/11/02 00:00:36;;;;;;;;;;;10.40;99.90;10.70;98413.00;;;;335274;29;83651;-92
2021/11/02 00:00:48;;;;;;;;;;;10.40;99.90;10.70;98420.00;;;;336614;28;85173;-92
2021/11/02 00:01:00;;;;;;;;;;;10.50;99.90;10.80;98416.00;;;;337911;28;82607;-91
2021/11/02 00:01:13;;;;;;;;;;;10.40;99.90;10.80;98414.00;;;;337926;28;85948;-91
2021/11/02 00:01:26;;;;;;;;;;;10.40;99.90;10.70;98415.00;;;;337887;28;83556;-92
2021/11/02 00:01:38;;;;;;;;;;;10.50;99.90;10.70;98412.00;;;;336220;28;85917;-91
2021/11/02 00:01:50;;;;;;;;;;;10.40;99.90;10.60;98415.00;;;;338029;28;83087;-92
2021/11/02 00:02:02;;;;;;;;;;;10.40;99.90;10.60;98419.00;;;;339502;28;84329;-92
2021/11/02 00:02:14;;;;;;;;;;;10.40;99.90;10.80;98416.00;;;;341410;28;11171;-92
2021/11/02 00:02:26;;;;;;;;;;;10.40;99.90;10.70;98418.00;;;;336613;28;84278;-92
2021/11/02 00:02:38;;;;;;;;;;;10.40;99.90;10.70;98413.00;;;;336742;28;83380;-92
2021/11/02 00:02:50;;;;;;;;;;;10.40;99.90;10.70;98420.00;;;;336613;28;85600;-91
2021/11/02 00:03:02;;;;;;;;;;;10.40;99.90;10.60;98421.00;;;;339500;28;78084;-92
2021/11/02 00:03:14;;;;;;;;;;;10.40;99.90;10.70;98414.00;;;;342842;28;11035;-91
2021/11/02 00:03:25;;;;;;;;;;;10.40;99.90;10.80;98417.00;;;;339311;28;83297;-92
2021/11/02 00:03:37;;;;;;;;;;;10.40;99.90;10.90;98415.00;;;;338708;28;85239;-91
2021/11/02 00:03:49;;;;;;;;;;;10.40;99.90;10.90;98418.00;;;;340812;28;83071;-91
2021/11/02 00:04:01;;;;;;;;;;;10.40;99.90;10.80;98412.00;;;;336469;28;86065;-92
2021/11/02 00:04:13;;;;;;;;;;;10.40;99.90;10.70;98418.00;;;;338105;28;83430;-90
2021/11/02 00:04:25;;;;;;;;;;;10.40;99.90;10.70;98407.00;;;;336466;28;84936;-92
2021/11/02 00:04:37;;;;;;;;;;;10.40;99.90;10.80;98415.00;;;;335273;29;82565;-91
2021/11/02 00:04:49;;;;;;;;;;;10.40;99.90;10.80;98414.00;;;;338025;28;84766;-92
2021/11/02 00:05:01;;;;;;;;;;;10.40;99.90;10.80;98422.00;;;;339110;28;82514;-92
2021/11/02 00:05:13;;;;;;;;;;;10.40;99.90;10.80;98417.00;;;;338043;28;84876;-92
2021/11/02 00:05:25;;;;;;;;;;;10.40;99.90;10.80;98419.00;;;;339202;28;82452;-91
2021/11/02 00:05:37;;;;;;;;;;;10.40;99.90;10.70;98415.00;;;;337732;28;85671;-92
2021/11/02 00:05:49;;;;;;;;;;;10.40;99.90;10.80;98410.00;;;;336770;28;83419;-92
2021/11/02 00:06:01;;;;;;;;;;;10.40;99.90;10.80;98408.00;;;;333933;29;84302;-91
2021/11/02 00:06:13;;;;;;;;;;;10.40;99.90;10.80;98417.00;;;;338082;28;83328;-90
2021/11/02 00:06:25;;;;;;;;;;;10.40;99.90;10.80;98413.00;;;;338985;28;87353;-92
2021/11/02 00:06:36;;;;;;;;;;;10.40;99.90;10.90;98419.00;;;;336234;28;83547;-91
2021/11/02 00:06:53;;;;;;;;;;;10.40;99.90;10.80;98417.00;;;;336641;28;83952;-91
2021/11/02 00:07:05;;;;;;;;;;;10.40;99.90;10.80;98408.00;;;;337945;28;82696;-92
2021/11/02 00:07:16;;;;;;;;;;;10.40;99.90;10.80;98415.00;;;;335256;29;85051;-92
2021/11/02 00:07:28;;;;;;;;;;;10.40;99.90;10.90;98401.00;;;;337987;28;83203;-91
2021/11/02 00:07:40;;;;;;;;;;;10.40;99.90;10.80;98411.00;;;;339119;28;84214;-91
2021/11/02 00:07:52;;;;;;;;;;;10.40;99.90;10.80;98415.00;;;;340102;28;82536;-87
2021/11/02 00:08:05;;;;;;;;;;;10.40;99.90;10.90;98410.00;;;;339829;28;84275;-89
2021/11/02 00:08:17;;;;;;;;;;;10.40;99.90;10.90;98414.00;;;;339612;28;82462;-90
2021/11/02 00:08:29;;;;;;;;;;;10.50;99.90;10.80;98408.00;;;;336928;28;86452;-91
2021/11/02 00:08:40;;;;;;;;;;;10.40;99.90;10.90;98407.00;;;;342781;28;82596;-91
2021/11/02 00:08:52;;;;;;;;;;;10.50;99.90;10.90;98411.00;;;;343289;28;83840;-92
2021/11/02 00:09:05;;;;;;;;;;;10.50;99.90;10.90;98408.00;;;;340599;28;82821;-91
2021/11/02 00:09:21;;;;;;;;;;;10.50;99.90;10.90;98411.00;;;;345419;28;83956;-92
2021/11/02 00:09:38;;;;;;;;;;;10.40;99.90;10.80;98417.00;;;;342989;28;82468;-91
2021/11/02 00:09:53;;;;;;;;;;;10.40;99.90;10.90;98411.00;;;;347281;28;83875;-92
2021/11/02 00:10:06;;;;;;;;;;;10.40;99.90;10.80;98416.00;;;;348296;28;82276;-91
2021/11/02 00:10:19;;;;;;;;;;;10.50;99.90;10.80;98413.00;;;;348162;28;84792;-92
2021/11/02 00:10:31;;;;;;;;;;;10.50;99.90;10.80;98411.00;;;;348566;28;82417;-91
2021/11/02 00:10:43;;;;;;;;;;;10.50;99.90;10.80;98411.00;;;;349849;27;84676;-91
2021/11/02 00:10:55;;;;;;;;;;;10.50;99.90;10.80;98411.00;;;;348258;28;82432;-91
2021/11/02 00:11:06;;;;;;;;;;;10.50;99.90;10.80;98414.00;;;;347919;28;86718;-91
2021/11/02 00:11:19;;;;;;;;;;;10.50;99.90;10.80;98410.00;;;;348413;28;83457;-92
2021/11/02 00:11:32;;;;;;;;;;;10.50;99.90;10.80;98408.00;;;;348397;28;84215;-91
2021/11/02 00:11:44;;;;;;;;;;;10.50;99.90;10.80;98408.00;;;;348261;28;82349;-92
2021/11/02 00:11:55;;;;;;;;;;;10.50;99.90;10.80;98407.00;;;;349498;27;86688;-92
2021/11/02 00:12:08;;;;;;;;;;;10.50;99.90;10.90;98410.00;;;;348424;28;82298;-91
2021/11/02 00:12:20;;;;;;;;;;;10.50;99.90;10.90;98412.00;;;;346469;28;82511;-92
2021/11/02 00:12:32;;;;;;;;;;;10.50;99.90;10.90;98401.00;;;;348692;27;82175;-91
2021/11/02 00:12:44;;;;;;;;;;;10.50;99.90;10.80;98405.00;;;;347983;28;85644;-91
2021/11/02 00:12:56;;;;;;;;;;;10.40;99.90;10.90;98399.00;;;;347090;28;82259;-91
2021/11/02 00:13:08;;;;;;;;;;;10.50;99.90;10.80;98403.00;;;;348060;28;84076;-92
2021/11/02 00:13:22;;;;;;;;;;;10.50;99.90;10.90;98407.00;;;;345667;28;83385;-91
2021/11/02 00:13:39;;;;;;;;;;;10.50;99.90;10.80;98405.00;;;;345261;28;82956;-91
2021/11/02 00:13:53;;;;;;;;;;;10.50;99.90;10.80;98402.00;;;;347284;28;82220;-91
2021/11/02 00:14:08;;;;;;;;;;;10.50;99.90;10.90;98403.00;;;;345562;28;85254;-92
2021/11/02 00:14:26;;;;;;;;;;;10.50;99.90;10.90;98410.00;;;;346075;28;82527;-92
2021/11/02 00:14:38;;;;;;;;;;;10.50;99.90;10.80;98407.00;;;;347883;28;86161;-92
2021/11/02 00:14:51;;;;;;;;;;;10.50;99.90;10.80;98399.00;;;;348159;28;83376;-91
2021/11/02 00:15:03;;;;;;;;;;;10.50;99.90;10.80;98408.00;;;;345276;28;85449;-91
2021/11/02 00:15:21;;;;;;;;;;;10.50;99.90;10.80;98399.00;;;;347223;28;82345;-92
2021/11/02 00:15:36;;;;;;;;;;;10.50;99.90;10.70;98399.00;;;;345848;28;83633;-90
2021/11/02 00:15:50;;;;;;;;;;;10.50;99.90;10.80;98399.00;;;;350190;27;83436;-91
2021/11/02 00:16:04;;;;;;;;;;;10.50;99.90;10.80;98403.00;;;;346681;28;85220;-91
2021/11/02 00:16:18;;;;;;;;;;;10.50;99.90;10.90;98402.00;;;;348341;28;82460;-91
2021/11/02 00:16:31;;;;;;;;;;;10.50;99.90;10.90;98406.00;;;;346742;28;85363;-92
2021/11/02 00:16:44;;;;;;;;;;;10.50;99.90;10.90;98405.00;;;;347039;28;82412;-92
2021/11/02 00:17:07;;;;;;;;;;;10.50;99.90;11.00;98406.00;;;;348453;28;83854;-91
2021/11/02 00:17:30;;;;;;;;;;;10.50;99.90;10.90;98398.00;;;;350343;27;82379;-91
2021/11/02 00:17:41;;;;;;;;;;;10.50;99.90;10.90;98395.00;;;;349731;27;86393;-91
2021/11/02 00:17:57;;;;;;;;;;;10.50;99.90;10.90;98403.00;;;;347057;28;82430;-92
2021/11/02 00:18:09;;;;;;;;;;;10.50;99.90;11.00;98398.00;;;;349933;27;85014;-92
2021/11/02 00:18:23;;;;;;;;;;;10.50;99.90;10.90;98404.00;;;;348284;28;82435;-92
2021/11/02 00:18:35;;;;;;;;;;;10.50;99.90;10.80;98403.00;;;;349030;27;84053;-92
2021/11/02 00:18:57;;;;;;;;;;;10.50;99.90;10.80;98405.00;;;;348784;28;82528;-91
2021/11/02 00:19:09;;;;;;;;;;;10.50;99.90;10.90;98397.00;;;;347334;28;84023;-91
2021/11/02 00:19:25;;;;;;;;;;;10.50;99.90;10.90;98401.00;;;;347206;28;82355;-91
2021/11/02 00:19:41;;;;;;;;;;;10.50;99.90;10.90;98401.00;;;;347211;28;82643;-92
2021/11/02 00:20:01;;;;;;;;;;;10.50;99.90;10.90;98399.00;;;;347265;28;82388;-91
2021/11/02 00:20:14;;;;;;;;;;;10.50;99.90;10.90;98403.00;;;;348694;28;83884;-92
2021/11/02 00:20:26;;;;;;;;;;;10.50;99.90;11.00;98408.00;;;;347058;28;82658;-91
2021/11/02 00:20:38;;;;;;;;;;;10.50;99.90;11.00;98402.00;;;;348482;28;83289;-92
2021/11/02 00:20:58;;;;;;;;;;;10.50;99.90;10.90;98398.00;;;;345691;28;82501;-92
2021/11/02 00:21:11;;;;;;;;;;;10.50;99.90;11.00;98387.00;;;;348162;28;83228;-92
2021/11/02 00:21:23;;;;;;;;;;;10.50;99.90;10.90;98393.00;;;;348369;28;82643;-91
2021/11/02 00:21:44;;;;;;;;;;;10.50;99.90;10.90;98393.00;;;;346379;28;85162;-90
2021/11/02 00:22:03;;;;;;;;;;;10.50;99.90;11.00;98395.00;;;;347383;28;82549;-91
2021/11/02 00:22:17;;;;;;;;;;;10.50;99.90;10.90;98392.00;;;;347141;28;84278;-91
2021/11/02 00:22:31;;;;;;;;;;;10.50;99.90;10.90;98393.00;;;;349995;27;82526;-91
2021/11/02 00:22:53;;;;;;;;;;;10.50;99.90;10.80;98390.00;;;;347434;28;84191;-91
2021/11/02 00:23:07;;;;;;;;;;;10.50;99.90;11.00;98400.00;;;;345931;28;82585;-92
2021/11/02 00:23:19;;;;;;;;;;;10.50;99.90;10.90;98394.00;;;;345716;28;83800;-91
2021/11/02 00:23:38;;;;;;;;;;;10.50;99.90;10.90;98399.00;;;;349929;27;83254;-91
2021/11/02 00:23:57;;;;;;;;;;;10.50;99.90;10.90;98382.00;;;;348766;28;84281;-92
2021/11/02 00:25:07;;;;;;;;;;;10.50;99.90;11.00;98389.00;;;;348415;28;85545;-92
2021/11/02 00:25:23;;;;;;;;;;;10.50;99.90;10.90;98390.00;;;;347138;28;82490;-92
2021/11/02 00:25:35;;;;;;;;;;;10.50;99.90;10.80;98393.00;;;;348332;28;83590;-91
2021/11/02 00:25:46;;;;;;;;;;;10.50;99.90;10.80;98394.00;;;;348968;28;82393;-91
2021/11/02 00:25:58;;;;;;;;;;;10.50;99.90;10.90;98394.00;;;;347217;28;84280;-91
2021/11/02 00:26:12;;;;;;;;;;;10.50;99.90;10.90;98392.00;;;;347445;28;82514;-91
2021/11/02 00:26:24;;;;;;;;;;;10.50;99.90;10.90;98396.00;;;;350041;27;84286;-91
2021/11/02 00:26:36;;;;;;;;;;;10.50;99.90;11.00;98390.00;;;;348833;28;82407;-92
2021/11/02 00:26:48;;;;;;;;;;;10.50;99.90;10.90;98387.00;;;;348345;28;85663;-91
2021/11/02 00:27:00;;;;;;;;;;;10.50;99.90;10.80;98399.00;;;;347204;28;82525;-91
2021/11/02 00:27:12;;;;;;;;;;;10.50;99.90;10.80;98393.00;;;;348732;28;82485;-92
2021/11/02 00:27:25;;;;;;;;;;;10.50;99.90;10.80;98392.00;;;;347406;28;82473;-91
2021/11/02 00:27:39;;;;;;;;;;;10.50;99.90;10.80;98399.00;;;;345006;28;82753;-91
2021/11/02 00:27:52;;;;;;;;;;;10.50;99.90;10.80;98401.00;;;;347490;28;82271;-91
2021/11/02 00:28:04;;;;;;;;;;;10.50;99.90;11.00;98388.00;;;;347757;28;84274;-91
2021/11/02 00:28:16;;;;;;;;;;;10.50;99.90;11.00;98391.00;;;;347176;28;83495;-91
2021/11/02 00:28:28;;;;;;;;;;;10.50;99.90;11.00;98388.00;;;;347346;28;85485;-91
2021/11/02 00:28:40;;;;;;;;;;;10.50;99.90;11.00;98388.00;;;;347468;28;83464;-91
2021/11/02 00:28:51;;;;;;;;;;;10.50;99.90;11.00;98390.00;;;;348698;27;85836;-91
2021/11/02 00:29:04;;;;;;;;;;;10.50;99.90;10.90;98391.00;;;;345920;28;83459;-92
2021/11/02 00:29:15;;;;;;;;;;;10.50;99.90;10.90;98392.00;;;;346031;28;85364;-92
2021/11/02 00:29:27;;;;;;;;;;;10.50;99.90;10.90;98392.00;;;;348566;27;83712;-91
2021/11/02 00:29:39;;;;;;;;;;;10.50;99.90;10.90;98390.00;;;;348752;27;84256;-91
2021/11/02 00:29:52;;;;;;;;;;;10.50;99.90;10.90;98387.00;;;;347510;28;83313;-91
2021/11/02 00:30:06;;;;;;;;;;;10.50;99.90;11.00;98393.00;;;;345989;28;83728;-91
2021/11/02 00:30:18;;;;;;;;;;;10.50;99.90;11.00;98396.00;;;;344709;28;83411;-91
2021/11/02 00:30:31;;;;;;;;;;;10.50;99.90;10.90;98393.00;;;;347363;27;84213;-92
2021/11/02 00:30:42;;;;;;;;;;;10.50;99.90;10.90;98389.00;;;;347121;28;83491;-91
2021/11/02 00:30:54;;;;;;;;;;;10.50;99.90;10.90;98387.00;;;;345825;28;83147;-91
2021/11/02 00:31:06;;;;;;;;;;;10.50;99.90;10.90;98390.00;;;;347510;28;82442;-91
2021/11/02 00:31:19;;;;;;;;;;;10.50;99.90;10.90;98386.00;;;;348763;27;84472;-92
2021/11/02 00:31:31;;;;;;;;;;;10.50;99.90;11.00;98385.00;;;;346109;28;82531;-92
2021/11/02 00:31:43;;;;;;;;;;;10.50;99.90;11.00;98381.00;;;;345895;28;84441;-92
2021/11/02 00:31:55;;;;;;;;;;;10.50;99.90;10.90;98389.00;;;;345824;28;83502;-91
2021/11/02 00:32:07;;;;;;;;;;;10.50;99.90;11.00;98384.00;;;;345797;28;85064;-91
2021/11/02 00:32:19;;;;;;;;;;;10.50;99.90;11.00;98388.00;;;;346041;28;83286;-92
2021/11/02 00:32:31;;;;;;;;;;;10.50;99.90;11.00;98380.00;;;;345766;28;84251;-91
2021/11/02 00:32:44;;;;;;;;;;;10.60;99.90;11.00;98380.00;;;;344721;28;83396;-91
2021/11/02 00:32:56;;;;;;;;;;;10.50;99.90;11.00;98386.00;;;;347335;28;85049;-92
2021/11/02 00:33:07;;;;;;;;;;;10.50;99.90;11.00;98387.00;;;;346111;28;83282;-91
2021/11/02 00:33:19;;;;;;;;;;;10.60;99.90;11.00;98392.00;;;;347449;28;84142;-92
2021/11/02 00:33:31;;;;;;;;;;;10.60;99.90;11.00;98394.00;;;;347461;27;83550;-92
2021/11/02 00:33:43;;;;;;;;;;;10.50;99.90;11.00;98389.00;;;;347061;28;87156;-92
2021/11/02 00:33:55;;;;;;;;;;;10.60;99.90;11.00;98388.00;;;;347053;28;83572;-91
2021/11/02 00:34:07;;;;;;;;;;;10.60;99.90;10.90;98385.00;;;;348369;27;84959;-92
2021/11/02 00:34:19;;;;;;;;;;;10.60;99.90;10.90;98388.00;;;;347438;28;83506;-92
2021/11/02 00:34:32;;;;;;;;;;;10.60;99.90;10.90;98399.00;;;;348706;27;85373;-91
2021/11/02 00:34:44;;;;;;;;;;;10.60;99.90;11.00;98390.00;;;;347535;28;83277;-91
2021/11/02 00:34:57;;;;;;;;;;;10.60;99.90;11.00;98382.00;;;;349904;27;85488;-91
2021/11/02 00:35:11;;;;;;;;;;;10.60;99.90;11.00;98389.00;;;;347546;28;82329;-92
2021/11/02 00:35:23;;;;;;;;;;;10.60;99.90;11.00;98381.00;;;;345962;28;84203;-91
2021/11/02 00:35:36;;;;;;;;;;;10.60;99.90;11.00;98385.00;;;;348114;27;83537;-91
2021/11/02 00:35:47;;;;;;;;;;;10.60;99.90;11.00;98389.00;;;;347409;28;84260;-92
2021/11/02 00:35:59;;;;;;;;;;;10.60;99.90;10.90;98376.00;;;;347464;28;82531;-91
2021/11/02 00:36:11;;;;;;;;;;;10.60;99.90;11.00;98372.00;;;;347411;28;85711;-91
2021/11/02 00:36:23;;;;;;;;;;;10.60;99.90;11.00;98386.00;;;;347239;28;83428;-92
2021/11/02 00:36:35;;;;;;;;;;;10.60;99.90;11.10;98388.00;;;;346566;28;84260;-92
2021/11/02 00:36:47;;;;;;;;;;;10.60;99.90;11.10;98384.00;;;;347279;28;82530;-91
2021/11/02 00:36:59;;;;;;;;;;;10.60;99.90;11.10;98387.00;;;;345846;28;85366;-92
2021/11/02 00:37:10;;;;;;;;;;;10.60;99.90;11.10;98383.00;;;;347604;28;82449;-91
2021/11/02 00:37:22;;;;;;;;;;;10.60;99.90;11.00;98380.00;;;;350027;27;83907;-92
2021/11/02 00:37:34;;;;;;;;;;;10.60;99.90;11.10;98383.00;;;;345935;28;83402;-90
2021/11/02 00:37:46;;;;;;;;;;;10.60;99.90;11.10;98388.00;;;;345908;28;84313;-91
2021/11/02 00:37:58;;;;;;;;;;;10.60;99.90;11.00;98380.00;;;;348560;27;83400;-92
2021/11/02 00:38:09;;;;;;;;;;;10.60;99.90;11.00;98393.00;;;;348510;27;86983;-91
2021/11/02 00:38:21;;;;;;;;;;;10.60;99.90;11.10;98392.00;;;;345844;28;83566;-91
2021/11/02 00:38:33;;;;;;;;;;;10.60;99.90;11.00;98393.00;;;;344668;28;85357;-92
2021/11/02 00:38:46;;;;;;;;;;;10.60;99.90;11.00;98394.00;;;;347225;28;83231;-91
2021/11/02 00:38:58;;;;;;;;;;;10.60;99.90;11.00;98388.00;;;;345715;28;85283;-92
2021/11/02 00:39:10;;;;;;;;;;;10.60;99.90;10.90;98388.00;;;;346088;28;83125;-92
2021/11/02 00:39:22;;;;;;;;;;;10.60;99.90;11.00;98390.00;;;;345836;28;84502;-91
2021/11/02 00:39:34;;;;;;;;;;;10.60;99.90;10.90;98390.00;;;;347040;27;83588;-91
2021/11/02 00:39:46;;;;;;;;;;;10.60;99.90;11.00;98387.00;;;;347172;28;86339;-92
2021/11/02 00:39:58;;;;;;;;;;;10.60;99.90;11.00;98393.00;;;;346106;28;83393;-91
2021/11/02 00:40:11;;;;;;;;;;;10.60;99.90;10.90;98391.00;;;;346047;28;84443;-92
2021/11/02 00:40:23;;;;;;;;;;;10.60;99.90;11.00;98386.00;;;;345644;28;82622;-92
2021/11/02 00:40:36;;;;;;;;;;;10.60;99.90;11.00;98395.00;;;;347364;28;83696;-92
2021/11/02 00:40:48;;;;;;;;;;;10.60;99.90;11.00;98397.00;;;;345814;28;83491;-92
2021/11/02 00:41:00;;;;;;;;;;;10.60;99.90;10.90;98394.00;;;;347377;28;84670;-92
2021/11/02 00:41:13;;;;;;;;;;;10.60;99.90;10.90;98385.00;;;;344603;28;83499;-92
2021/11/02 00:41:24;;;;;;;;;;;10.60;99.90;10.90;98386.00;;;;347181;28;86476;-92
2021/11/02 00:41:36;;;;;;;;;;;10.60;99.90;11.00;98386.00;;;;348839;27;83451;-91
2021/11/02 00:41:48;;;;;;;;;;;10.60;99.90;11.10;98394.00;;;;347415;28;85394;-92
2021/11/02 00:42:00;;;;;;;;;;;10.60;99.90;11.00;98398.00;;;;347486;28;83317;-92
2021/11/02 00:42:12;;;;;;;;;;;10.60;99.90;11.10;98396.00;;;;345863;28;84209;-92
2021/11/02 00:42:33;;;;;;;;;;;10.60;99.90;11.10;98391.00;;;;345973;28;82605;-92
2021/11/02 00:43:04;;;;;;;;;;;10.60;99.90;11.00;98395.00;;;;347054;27;83532;-92
2021/11/02 00:43:16;;;;;;;;;;;10.60;99.90;11.00;98389.00;;;;346723;28;84029;-93
2021/11/02 00:43:28;;;;;;;;;;;10.60;99.90;10.90;98389.00;;;;348899;27;82406;-92
2021/11/02 00:43:43;;;;;;;;;;;10.60;99.90;10.90;98384.00;;;;347080;28;85618;-93
2021/11/02 00:43:56;;;;;;;;;;;10.60;99.90;10.90;98387.00;;;;347430;28;82373;-92
2021/11/02 00:44:08;;;;;;;;;;;10.60;99.90;11.00;98389.00;;;;345754;28;86621;-92
2021/11/02 00:44:21;;;;;;;;;;;10.50;99.90;11.00;98386.00;;;;344642;28;83450;-92
2021/11/02 00:44:35;;;;;;;;;;;10.60;99.90;10.90;98388.00;;;;343168;28;85512;-92
2021/11/02 00:44:55;;;;;;;;;;;10.60;99.90;11.00;98386.00;;;;347151;28;83415;-92
2021/11/02 00:45:11;;;;;;;;;;;10.60;99.90;11.10;98393.00;;;;345973;28;84262;-92
2021/11/02 00:45:32;;;;;;;;;;;10.60;99.90;11.00;98387.00;;;;347351;28;83373;-93
2021/11/02 00:45:44;;;;;;;;;;;10.60;99.90;11.10;98382.00;;;;345861;28;85565;-92
2021/11/02 00:45:56;;;;;;;;;;;10.60;99.90;11.00;98384.00;;;;344430;28;83632;-92
2021/11/02 00:46:08;;;;;;;;;;;10.60;99.90;11.00;98381.00;;;;347156;28;86322;-92
2021/11/02 00:46:26;;;;;;;;;;;10.60;99.90;10.80;98374.00;;;;347557;28;82487;-92
2021/11/02 00:46:38;;;;;;;;;;;10.60;99.90;10.80;98380.00;;;;351571;28;33682;-92
2021/11/02 00:46:51;;;;;;;;;;;10.50;99.90;10.90;98378.00;;;;352357;28;10865;-93
2021/11/02 00:47:05;;;;;;;;;;;10.50;99.90;10.90;98382.00;;;;345816;28;85343;-92
2021/11/02 00:47:22;;;;;;;;;;;10.50;99.90;10.90;98380.00;;;;345849;28;83573;-92
2021/11/02 00:47:34;;;;;;;;;;;10.50;99.90;10.80;98376.00;;;;346068;28;83766;-92
2021/11/02 00:47:45;;;;;;;;;;;10.50;99.90;10.90;98382.00;;;;346087;28;83531;-92
2021/11/02 00:47:58;;;;;;;;;;;10.50;99.90;10.80;98383.00;;;;345994;28;85183;-91
2021/11/02 00:48:13;;;;;;;;;;;10.50;99.90;10.80;98377.00;;;;350942;28;10912;-93
2021/11/02 00:48:26;;;;;;;;;;;10.50;99.90;10.90;98376.00;;;;349560;28;10856;-92
2021/11/02 00:48:38;;;;;;;;;;;10.50;99.90;11.00;98377.00;;;;349819;27;83604;-92
2021/11/02 00:48:50;;;;;;;;;;;10.50;99.90;11.00;98386.00;;;;345796;28;85349;-92
2021/11/02 00:49:02;;;;;;;;;;;10.50;99.90;11.00;98379.00;;;;350597;28;21172;-93
2021/11/02 00:49:18;;;;;;;;;;;10.50;99.90;11.00;98377.00;;;;350794;28;12625;-92
2021/11/02 00:49:29;;;;;;;;;;;10.50;99.90;11.00;98373.00;;;;351113;28;10891;-92
2021/11/02 00:49:41;;;;;;;;;;;10.50;99.90;11.00;98377.00;;;;352319;28;11264;-92
2021/11/02 00:49:54;;;;;;;;;;;10.50;99.90;11.00;98367.00;;;;347487;28;83449;-92
2021/11/02 00:50:10;;;;;;;;;;;10.50;99.90;10.90;98375.00;;;;346007;28;85152;-92
2021/11/02 00:50:22;;;;;;;;;;;10.50;99.90;10.80;98374.00;;;;351584;28;31460;-93
2021/11/02 00:50:34;;;;;;;;;;;10.50;99.90;10.90;98378.00;;;;351075;28;11288;-93
2021/11/02 00:50:47;;;;;;;;;;;10.50;99.90;11.00;98378.00;;;;350939;28;10926;-92
2021/11/02 00:50:58;;;;;;;;;;;10.50;99.90;10.90;98378.00;;;;353817;27;11254;-93
2021/11/02 00:51:10;;;;;;;;;;;10.50;99.90;10.90;98368.00;;;;351810;28;19481;-91
2021/11/02 00:51:22;;;;;;;;;;;10.50;99.90;10.80;98373.00;;;;348537;28;73202;-93
2021/11/02 00:51:34;;;;;;;;;;;10.50;99.90;10.70;98380.00;;;;347223;28;82560;-92
2021/11/02 00:51:46;;;;;;;;;;;10.50;99.90;10.70;98378.00;;;;343228;28;83527;-92
2021/11/02 00:51:57;;;;;;;;;;;10.50;99.90;10.70;98375.00;;;;343399;28;83318;-92
2021/11/02 00:52:09;;;;;;;;;;;10.50;99.90;10.80;98375.00;;;;347342;28;84016;-92
2021/11/02 00:52:21;;;;;;;;;;;10.50;99.90;10.80;98379.00;;;;344704;28;83567;-92
2021/11/02 00:52:34;;;;;;;;;;;10.50;99.90;10.80;98379.00;;;;348067;28;38430;-93
2021/11/02 00:52:46;;;;;;;;;;;10.50;99.90;10.90;98369.00;;;;346144;28;71833;-93
2021/11/02 00:52:57;;;;;;;;;;;10.50;99.90;10.90;98375.00;;;;350076;28;23009;-92
2021/11/02 00:53:09;;;;;;;;;;;10.50;99.90;10.90;98378.00;;;;350695;28;18720;-92
2021/11/02 00:53:21;;;;;;;;;;;10.40;99.90;10.80;98374.00;;;;351911;27;53618;-92
2021/11/02 00:53:33;;;;;;;;;;;10.50;99.90;10.80;98373.00;;;;346849;28;74112;-92
2021/11/02 00:53:45;;;;;;;;;;;10.40;99.90;10.70;98374.00;;;;350857;28;14676;-92
2021/11/02 00:53:57;;;;;;;;;;;10.40;99.90;10.80;98378.00;;;;349259;28;14504;-92
2021/11/02 00:54:09;;;;;;;;;;;10.40;99.90;10.80;98383.00;;;;353042;27;24500;-92
2021/11/02 00:54:21;;;;;;;;;;;10.40;99.90;10.70;98377.00;;;;347113;28;82583;-92
2021/11/02 00:54:33;;;;;;;;;;;10.40;99.90;10.70;98377.00;;;;347655;27;84877;-92
2021/11/02 00:54:45;;;;;;;;;;;10.40;99.90;10.70;98372.00;;;;347520;28;83244;-91
2021/11/02 00:54:56;;;;;;;;;;;10.40;99.90;10.70;98378.00;;;;348775;27;83767;-92
2021/11/02 00:55:09;;;;;;;;;;;10.40;99.90;10.70;98382.00;;;;344742;28;83343;-92
2021/11/02 00:55:21;;;;;;;;;;;10.40;99.90;10.80;98378.00;;;;347333;28;85527;-92
2021/11/02 00:55:33;;;;;;;;;;;10.40;99.90;10.90;98374.00;;;;345844;28;82531;-92
2021/11/02 00:55:45;;;;;;;;;;;10.40;99.90;10.90;98373.00;;;;343206;28;83802;-93
2021/11/02 00:55:57;;;;;;;;;;;10.40;99.90;10.80;98373.00;;;;347113;28;76404;-91
2021/11/02 00:56:09;;;;;;;;;;;10.40;99.90;10.80;98384.00;;;;353632;27;11194;-93
2021/11/02 00:56:20;;;;;;;;;;;10.40;99.90;10.80;98378.00;;;;350921;28;10921;-92
2021/11/02 00:56:32;;;;;;;;;;;10.40;99.90;10.80;98379.00;;;;346658;28;81214;-92
2021/11/02 00:56:44;;;;;;;;;;;10.40;99.90;10.70;98380.00;;;;346137;28;83313;-92
2021/11/02 00:56:56;;;;;;;;;;;10.40;99.90;10.80;98383.00;;;;347105;28;85782;-92
2021/11/02 00:57:08;;;;;;;;;;;10.40;99.90;10.80;98379.00;;;;347547;28;83403;-92
2021/11/02 00:57:20;;;;;;;;;;;10.40;99.90;10.80;98385.00;;;;345588;28;86917;-92
2021/11/02 00:57:32;;;;;;;;;;;10.40;99.90;10.70;98376.00;;;;344648;28;83540;-92
2021/11/02 00:57:44;;;;;;;;;;;10.40;99.90;10.70;98380.00;;;;346731;28;86618;-92
2021/11/02 00:57:56;;;;;;;;;;;10.40;99.90;10.70;98378.00;;;;346122;28;83342;-92
2021/11/02 00:58:09;;;;;;;;;;;10.40;99.90;10.80;98377.00;;;;348233;27;86867;-92
2021/11/02 00:58:22;;;;;;;;;;;10.40;99.90;10.70;98382.00;;;;347380;28;82540;-91
2021/11/02 00:58:34;;;;;;;;;;;10.40;99.90;10.70;98380.00;;;;347373;28;85464;-92
2021/11/02 00:58:46;;;;;;;;;;;10.40;99.90;10.80;98375.00;;;;347612;28;83186;-92
2021/11/02 00:58:58;;;;;;;;;;;10.40;99.90;10.80;98373.00;;;;347301;28;85254;-93
2021/11/02 00:59:10;;;;;;;;;;;10.40;99.90;10.80;98372.00;;;;346075;28;83438;-93
2021/11/02 00:59:22;;;;;;;;;;;10.40;99.90;10.90;98373.00;;;;344534;28;85468;-92
2021/11/02 00:59:33;;;;;;;;;;;10.40;99.90;10.80;98378.00;;;;346106;28;83335;-92
2021/11/02 00:59:45;;;;;;;;;;;10.40;99.90;10.80;98371.00;;;;347251;28;84400;-92
2021/11/02 00:59:57;;;;;;;;;;;10.40;99.90;10.80;98380.00;;;;345741;28;83567;-92
2021/11/02 01:00:10;;;;;;;;;;;10.40;99.90;10.70;98380.00;;;;346001;28;83638;-92
2021/11/02 01:00:24;;;;;;;;;;;10.40;99.90;10.70;98375.00;;;;346045;28;83466;-92
2021/11/02 01:00:37;;;;;;;;;;;10.40;99.90;10.60;98371.00;;;;345827;28;85598;-92
2021/11/02 01:00:49;;;;;;;;;;;10.40;99.90;10.80;98371.00;;;;350054;27;83508;-93
2021/11/02 01:01:01;;;;;;;;;;;10.30;99.90;10.80;98371.00;;;;348316;27;86526;-91
2021/11/02 01:01:14;;;;;;;;;;;10.30;99.90;10.80;98379.00;;;;347243;28;83346;-92
2021/11/02 01:01:26;;;;;;;;;;;10.30;99.90;10.70;98367.00;;;;344611;28;85418;-92
2021/11/02 01:01:38;;;;;;;;;;;10.30;99.90;10.70;98375.00;;;;347088;28;82582;-93
2021/11/02 01:01:50;;;;;;;;;;;10.40;99.90;10.70;98373.00;;;;346968;28;86138;-92
2021/11/02 01:02:07;;;;;;;;;;;10.30;99.90;10.60;98372.00;;;;344474;28;83611;-93
2021/11/02 01:02:19;;;;;;;;;;;10.40;99.90;10.70;98374.00;;;;347302;28;84351;-92
2021/11/02 01:02:30;;;;;;;;;;;10.40;99.90;10.60;98374.00;;;;351552;27;77438;-92
2021/11/02 01:02:43;;;;;;;;;;;10.30;99.90;10.50;98364.00;;;;352112;28;12635;-92
2021/11/02 01:02:54;;;;;;;;;;;10.30;99.90;10.60;98368.00;;;;350971;28;10953;-92
2021/11/02 01:03:07;;;;;;;;;;;10.30;99.90;10.70;98373.00;;;;351946;28;26786;-93
2021/11/02 01:03:19;;;;;;;;;;;10.30;99.90;10.80;98369.00;;;;352599;27;40011;-92
2021/11/02 01:03:31;;;;;;;;;;;10.30;99.90;10.80;98369.00;;;;348702;28;73210;-92
2021/11/02 01:03:43;;;;;;;;;;;10.30;99.90;10.80;98371.00;;;;348867;27;82648;-92
2021/11/02 01:03:55;;;;;;;;;;;10.30;99.90;10.70;98363.00;;;;349960;27;85312;-92
2021/11/02 01:04:07;;;;;;;;;;;10.30;99.90;10.70;98373.00;;;;347324;28;83469;-92
2021/11/02 01:04:19;;;;;;;;;;;10.30;99.90;10.70;98377.00;;;;350031;27;84299;-91
2021/11/02 01:04:30;;;;;;;;;;;10.30;99.90;10.70;98373.00;;;;348884;27;83414;-92
2021/11/02 01:04:42;;;;;;;;;;;10.30;99.90;10.70;98373.00;;;;350300;27;82468;-92
2021/11/02 01:04:54;;;;;;;;;;;10.30;99.90;10.80;98374.00;;;;350225;27;83322;-91